KCVN

Clovis Municipal Airport

Airport
ICAO code
KCVN
Summary
ICAO Region
NAM
ICAO Territory
Location

Clovis, New Mexico,

Elevation
4216 ft
Coordinates
34° 25' 36" N , 103° 4' 42" W
KCC
Airport RE
Hot and High Operations
Metar
Observation
KCVN 070756Z AUTO 34006KT 10SM SCT060 SCT080 BKN120 13/12 A3037 RMK AO2 SLP261 T01330117
Station
Clovis, Clovis Municipal Airport
Date/Time
2022-10-07 07:56:00
Wind direction
340°
Wind speed
06 kts
Lowest cloud amount
scattered clouds
Temperature
13.3°C
Dew point
11.7°C
Humidity
90%
Weather condition
n/a

Description

Clovis Municipal Airport is a public use airport located 11 km east of the central business district of Clovis, a city in Curry County, New Mexico.

Climatology

A semi-arid steppe climate (Köppen climate classification BSk), with generally cold, dry winters and hot summers. Late spring and early summer is on average the wettest period of the year.

Airport map

Aerial View

SKYbrary Partners:

Safety knowledge contributed by: